Time;durP1;ratioP1;P1;durP2;ratioP2;P2;SDS_P1;SDS_P2;PMS_P1;PMS_P2;Temp;Humidity;BMP_temperature;BMP_pressure;BME280_temperature;BME280_humidity;BME280_pressure;Samples;Min_cycle;Max_cycle;Signal;HPM_P1;HPM_P2
2023/03/31 00:00:19;;;;;;;;;2.33;2.00;;;;;15.90;63.13;99928.34;2079022;28;47219;-62
2023/03/31 00:01:20;;;;;;;;;4.00;2.67;;;;;15.91;62.56;99930.09;2078967;28;46307;-62
2023/03/31 00:02:21;;;;;;;;;4.00;2.00;;;;;15.92;62.66;99936.28;2087302;28;46846;-62
2023/03/31 00:03:22;;;;;;;;;2.00;1.50;;;;;15.93;63.02;99930.00;2086305;28;46153;-63
2023/03/31 00:04:24;;;;;;;;;1.75;0.75;;;;;15.93;62.70;99924.63;2079434;28;46224;-62
2023/03/31 00:05:25;;;;;;;;;2.00;2.00;;;;;15.92;63.08;99921.09;2079079;28;46735;-62
2023/03/31 00:06:26;;;;;;;;;3.00;1.00;;;;;15.91;62.80;99918.53;2087198;28;46669;-61
2023/03/31 00:07:26;;;;;;;;;1.75;1.75;;;;;15.89;63.06;99923.97;2061149;28;46808;-61
2023/03/31 00:08:34;;;;;;;;;1.00;1.00;;;;;15.88;63.14;99938.28;2062660;28;46276;-62
2023/03/31 00:09:34;;;;;;;;;2.00;2.00;;;;;15.86;63.12;99937.47;2086875;28;46877;-62
2023/03/31 00:10:35;;;;;;;;;3.00;3.00;;;;;15.85;63.41;99938.44;2087407;28;46507;-62
2023/03/31 00:11:36;;;;;;;;;2.00;2.00;;;;;15.83;63.12;99925.16;2086577;28;47744;-61
2023/03/31 00:12:37;;;;;;;;;2.50;2.50;;;;;15.82;63.43;99927.91;2087323;28;46768;-61
2023/03/31 00:13:37;;;;;;;;;2.33;1.00;;;;;15.82;63.72;99930.59;2086895;28;46470;-63
2023/03/31 00:14:38;;;;;;;;;3.33;2.67;;;;;15.82;63.42;99927.91;2087010;28;46888;-63
2023/03/31 00:15:39;;;;;;;;;2.50;1.25;;;;;15.81;63.32;99932.41;2087360;28;46551;-62
2023/03/31 00:16:39;;;;;;;;;1.00;1.00;;;;;15.82;63.40;99928.78;2087046;28;46852;-61
2023/03/31 00:17:40;;;;;;;;;0.00;0.00;;;;;15.82;63.70;99922.56;2086672;28;46335;-61
2023/03/31 00:18:46;;;;;;;;;3.33;2.00;;;;;15.83;63.36;99918.94;2087146;28;46735;-63
2023/03/31 00:19:48;;;;;;;;;2.00;1.00;;;;;15.83;63.68;99913.59;2079164;28;45592;-61
2023/03/31 00:20:51;;;;;;;;;4.75;2.75;;;;;15.82;64.07;99895.81;2101519;28;47439;-62
2023/03/31 00:21:53;;;;;;;;;5.00;5.00;;;;;15.80;64.40;99870.97;2101833;28;47005;-62
2023/03/31 00:22:56;;;;;;;;;1.75;0.50;;;;;15.76;63.60;99846.19;2099069;28;45978;-61
2023/03/31 00:24:02;;;;;;;;;0.75;0.75;;;;;15.75;63.83;99838.25;2104942;28;46757;-62
2023/03/31 00:25:02;;;;;;;;;2.25;1.75;;;;;15.73;64.48;99832.13;2104906;28;46294;-61
2023/03/31 00:26:02;;;;;;;;;3.00;2.33;;;;;15.75;64.21;99851.63;2099410;28;46708;-62
2023/03/31 00:27:04;;;;;;;;;3.00;2.67;;;;;15.74;64.57;99865.94;2096725;28;46039;-62
2023/03/31 00:28:04;;;;;;;;;1.00;1.00;;;;;15.73;64.84;99853.50;2093423;28;46452;-61
2023/03/31 00:29:07;;;;;;;;;6.33;2.00;;;;;15.74;64.13;99820.47;2095494;28;46396;-63
2023/03/31 00:30:08;;;;;;;;;6.75;3.75;;;;;15.73;64.51;99821.41;2105351;28;45244;-61
2023/03/31 00:31:09;;;;;;;;;0.75;0.75;;;;;15.72;64.49;99806.31;2104513;28;46254;-63
2023/03/31 00:32:10;;;;;;;;;2.33;2.33;;;;;15.68;64.35;99800.28;2104684;28;46375;-61
2023/03/31 00:33:10;;;;;;;;;0.00;0.00;;;;;15.66;64.21;99794.19;2096199;28;46710;-61
2023/03/31 00:34:11;;;;;;;;;0.00;0.00;;;;;15.66;65.31;99790.63;2093230;28;45550;-63
2023/03/31 00:35:11;;;;;;;;;3.33;2.33;;;;;15.64;64.13;99805.91;2095862;28;46481;-61
2023/03/31 00:36:12;;;;;;;;;1.00;1.00;;;;;15.61;64.39;99798.91;2103869;28;46553;-63
2023/03/31 00:37:13;;;;;;;;;2.33;2.33;;;;;15.60;64.50;99786.47;2097631;28;46550;-62
2023/03/31 00:38:13;;;;;;;;;2.75;2.00;;;;;15.57;64.87;99779.47;2104416;27;46607;-62
2023/03/31 00:39:16;;;;;;;;;1.33;1.33;;;;;15.56;64.08;99777.75;2103922;28;46268;-62
2023/03/31 00:40:18;;;;;;;;;4.00;3.00;;;;;15.54;63.94;99779.66;2086624;28;46499;-62
2023/03/31 00:41:18;;;;;;;;;3.50;1.50;;;;;15.54;64.51;99776.97;2086971;28;45813;-62
2023/03/31 00:42:19;;;;;;;;;2.00;2.00;;;;;15.53;64.47;99771.72;2104569;28;46722;-62
2023/03/31 00:43:29;;;;;;;;;1.33;1.33;;;;;15.51;63.65;99778.97;2096390;28;46292;-62
2023/03/31 00:44:32;;;;;;;;;1.50;1.00;;;;;15.50;64.36;99786.13;2094651;28;46554;-62
2023/03/31 00:45:32;;;;;;;;;1.50;1.50;;;;;15.50;64.17;99793.25;2095695;28;46688;-63
2023/03/31 00:46:52;;;;;;;;;2.33;2.33;;;;;15.49;64.06;99788.88;2095384;28;47056;-63
2023/03/31 00:48:08;;;;;;;;;0.75;0.75;;;;;15.47;63.93;99790.78;2098176;28;47086;-62
2023/03/31 00:49:39;;;;;;;;;1.25;1.25;;;;;15.45;64.45;99777.50;2104445;27;47006;-62
2023/03/31 00:50:48;;;;;;;;;1.25;1.25;;;;;15.45;64.07;99768.63;2039167;28;46345;-62
2023/03/31 00:51:51;;;;;;;;;1.25;1.25;;;;;15.45;64.36;99756.09;2040212;28;46878;-62
2023/03/31 00:52:57;;;;;;;;;3.50;3.50;;;;;15.45;64.33;99760.59;2045936;28;46705;-62
2023/03/31 00:54:04;;;;;;;;;0.00;0.00;;;;;15.44;64.67;99741.00;2038990;28;46818;-62
2023/03/31 00:55:13;;;;;;;;;2.00;1.00;;;;;15.44;64.13;99757.06;2038141;28;45675;-62
2023/03/31 00:56:16;;;;;;;;;3.25;2.75;;;;;15.44;63.70;99756.19;2038347;28;46663;-62
2023/03/31 00:57:16;;;;;;;;;3.50;2.00;;;;;15.43;63.64;99749.13;2037641;28;46864;-63
2023/03/31 00:58:19;;;;;;;;;0.67;0.33;;;;;15.45;63.59;99760.59;2046295;28;46767;-63
2023/03/31 00:59:26;;;;;;;;;3.75;2.00;;;;;15.45;63.74;99747.22;2046006;28;46455;-62
2023/03/31 01:00:29;;;;;;;;;3.25;2.75;;;;;15.45;63.62;99732.03;2038430;28;45282;-62
2023/03/31 01:01:30;;;;;;;;;3.25;3.00;;;;;15.45;63.67;99737.38;2037985;28;46930;-62
2023/03/31 01:02:30;;;;;;;;;2.75;1.75;;;;;15.46;63.50;99743.59;2037735;28;47093;-63
2023/03/31 01:03:32;;;;;;;;;1.67;1.00;;;;;15.45;64.03;99739.19;2042851;28;46321;-63
2023/03/31 01:04:37;;;;;;;;;2.50;0.75;;;;;15.43;63.82;99741.09;2038440;28;46539;-63
2023/03/31 01:06:02;;;;;;;;;0.25;0.25;;;;;15.42;63.29;99742.06;2038183;28;46325;-63
2023/03/31 01:07:15;;;;;;;;;2.25;2.00;;;;;15.39;63.54;99728.88;2038206;28;46593;-61
2023/03/31 01:08:18;;;;;;;;;2.75;2.00;;;;;15.38;63.44;99741.38;2038115;28;46418;-61
2023/03/31 01:09:21;;;;;;;;;3.25;2.00;;;;;15.37;63.59;99723.59;2038169;28;46556;-63
2023/03/31 01:10:22;;;;;;;;;2.25;2.00;;;;;15.36;63.67;99729.88;2038210;28;45593;-61
2023/03/31 01:11:26;;;;;;;;;1.33;0.33;;;;;15.36;63.55;99724.53;2038068;28;45923;-62
2023/03/31 01:12:27;;;;;;;;;1.75;0.25;;;;;15.34;62.95;99722.91;2038041;28;47229;-62
2023/03/31 01:13:29;;;;;;;;;1.00;1.00;;;;;15.34;63.25;99721.09;2042748;28;46576;-62
2023/03/31 01:14:31;;;;;;;;;2.00;2.00;;;;;15.31;63.44;99719.47;2046259;28;47184;-62
2023/03/31 01:15:32;;;;;;;;;2.25;2.25;;;;;15.30;63.35;99727.56;2046062;28;46247;-62
2023/03/31 01:16:32;;;;;;;;;1.00;1.00;;;;;15.30;63.18;99727.56;2046105;28;46615;-62
2023/03/31 01:17:33;;;;;;;;;1.67;1.33;;;;;15.29;63.53;99721.38;2045240;28;46390;-62
2023/03/31 01:18:34;;;;;;;;;3.00;2.00;;;;;15.30;63.40;99724.91;2046669;28;45347;-62
2023/03/31 01:20:11;;;;;;;;;1.75;1.75;;;;;15.29;63.45;99712.50;2045837;28;47155;-61
2023/03/31 01:21:24;;;;;;;;;1.75;1.50;;;;;15.30;63.53;99714.22;2041053;28;46894;-62
2023/03/31 01:22:37;;;;;;;;;3.00;1.75;;;;;15.29;63.52;99726.72;2046501;28;46631;-61
2023/03/31 01:24:05;;;;;;;;;1.25;1.25;;;;;15.29;63.51;99712.50;2054331;28;47014;-61
2023/03/31 01:25:06;;;;;;;;;2.50;2.50;;;;;15.29;63.53;99705.34;2054918;28;46279;-62
2023/03/31 01:26:53;;;;;;;;;2.00;1.33;;;;;15.30;63.38;99704.38;2057403;28;46418;-62
2023/03/31 01:28:21;;;;;;;;;1.00;1.00;;;;;15.31;63.46;99702.56;2054687;28;47117;-61
2023/03/31 01:29:53;;;;;;;;;2.00;2.00;;;;;15.30;63.59;99701.69;2084232;28;46632;-62
2023/03/31 01:31:25;;;;;;;;;3.00;2.75;;;;;15.31;63.71;99698.09;2086805;28;45503;-62
2023/03/31 01:32:46;;;;;;;;;1.50;1.50;;;;;15.32;63.58;99705.16;2065081;28;46590;-63
2023/03/31 01:33:55;;;;;;;;;1.00;0.75;;;;;15.33;63.57;99703.34;2060474;28;46390;-62
2023/03/31 01:35:23;;;;;;;;;2.25;1.25;;;;;15.34;63.38;99701.53;2061186;28;46361;-62
2023/03/31 01:36:37;;;;;;;;;2.00;2.00;;;;;15.33;63.06;99695.31;2059715;28;47066;-61
2023/03/31 01:37:46;;;;;;;;;0.75;0.75;;;;;15.30;63.36;99693.69;2061245;28;46332;-62
2023/03/31 01:39:12;;;;;;;;;0.00;0.00;;;;;15.29;63.64;99680.41;2061877;28;46530;-62
2023/03/31 01:40:32;;;;;;;;;2.75;2.75;;;;;15.29;63.11;99685.75;2062399;28;45365;-61
2023/03/31 01:41:44;;;;;;;;;1.00;1.00;;;;;15.28;63.79;99670.66;2062311;28;46481;-61
2023/03/31 01:43:09;;;;;;;;;3.25;2.00;;;;;15.28;63.53;99681.38;2062198;28;46663;-62
2023/03/31 01:44:12;;;;;;;;;1.50;0.75;;;;;15.27;63.53;99682.31;2061895;28;46989;-62
2023/03/31 01:45:21;;;;;;;;;0.00;0.00;;;;;15.28;64.29;99678.69;2061904;28;45370;-62
2023/03/31 01:46:35;;;;;;;;;1.75;1.25;;;;;15.26;63.78;99672.59;2053953;28;46698;-62
2023/03/31 01:47:50;;;;;;;;;3.00;1.25;;;;;15.24;63.57;99675.31;2054877;28;46463;-62
2023/03/31 01:49:00;;;;;;;;;0.00;0.00;;;;;15.23;63.64;99668.25;2056297;28;45806;-63
2023/03/31 01:50:07;;;;;;;;;2.50;1.00;;;;;15.24;63.84;99669.97;2055664;28;45790;-63
2023/03/31 01:51:18;;;;;;;;;1.75;1.00;;;;;15.26;64.12;99668.09;2063124;28;46583;-62
2023/03/31 01:52:25;;;;;;;;;3.75;2.00;;;;;15.24;63.71;99651.25;2063262;28;47116;-63
2023/03/31 01:53:36;;;;;;;;;0.75;0.75;;;;;15.24;64.25;99650.41;2055171;28;46707;-63
2023/03/31 01:55:01;;;;;;;;;1.75;1.25;;;;;15.21;64.37;99648.78;2057182;28;47043;-62
2023/03/31 01:56:06;;;;;;;;;1.25;1.25;;;;;15.19;64.21;99645.31;2063519;28;46572;-63
2023/03/31 01:57:17;;;;;;;;;3.00;1.50;;;;;15.20;64.31;99638.16;2062787;28;46843;-62
2023/03/31 01:58:23;;;;;;;;;2.00;1.25;;;;;15.20;64.98;99643.50;2063307;28;46951;-62
2023/03/31 01:59:33;;;;;;;;;1.25;0.75;;;;;15.19;64.41;99636.44;2063363;28;46458;-62
2023/03/31 02:00:40;;;;;;;;;0.50;0.50;;;;;15.19;64.11;99628.44;2063793;28;46362;-63
2023/03/31 02:01:55;;;;;;;;;1.75;1.75;;;;;15.19;64.64;99633.78;2063656;28;46866;-62
2023/03/31 02:03:16;;;;;;;;;2.00;2.00;;;;;15.19;64.33;99623.94;2063163;28;46663;-62
2023/03/31 02:04:23;;;;;;;;;0.25;0.25;;;;;15.21;64.15;99634.53;2063344;28;47360;-63
2023/03/31 02:05:28;;;;;;;;;2.00;2.00;;;;;15.20;64.58;99631.00;2056666;28;46695;-61
2023/03/31 02:06:34;;;;;;;;;2.25;2.25;;;;;15.19;64.30;99631.97;2055555;28;46768;-61
2023/03/31 02:07:58;;;;;;;;;2.25;1.25;;;;;15.20;64.71;99631.00;2055389;28;46903;-61
2023/03/31 02:09:09;;;;;;;;;3.00;1.25;;;;;15.21;64.59;99619.38;2055225;28;46078;-62
2023/03/31 02:10:12;;;;;;;;;2.00;2.00;;;;;15.23;64.57;99613.94;2083643;28;46878;-62
2023/03/31 02:11:12;;;;;;;;;0.50;0.25;;;;;15.26;64.29;99630.66;2100985;28;46432;-61
2023/03/31 02:12:15;;;;;;;;;2.00;2.00;;;;;15.28;64.39;99611.88;2105630;28;46199;-64
2023/03/31 02:13:17;;;;;;;;;3.00;2.00;;;;;15.28;65.00;99627.91;2105704;27;45285;-62
2023/03/31 02:14:23;;;;;;;;;3.75;2.00;;;;;15.27;64.72;99599.47;2096693;28;46519;-62
2023/03/31 02:15:29;;;;;;;;;0.75;0.75;;;;;15.27;64.97;99605.66;2097844;28;45919;-62
2023/03/31 02:16:34;;;;;;;;;3.00;3.00;;;;;15.26;64.57;99611.09;2101278;28;46995;-62
2023/03/31 02:17:38;;;;;;;;;1.00;1.00;;;;;15.26;64.37;99600.41;2100014;28;46341;-61
2023/03/31 02:18:41;;;;;;;;;2.50;1.75;;;;;15.27;64.70;99603.00;2105524;28;46934;-62
2023/03/31 02:19:45;;;;;;;;;1.50;1.50;;;;;15.28;64.25;99595.84;2106275;28;45558;-63
2023/03/31 02:20:49;;;;;;;;;1.00;1.00;;;;;15.27;64.41;99611.00;2101060;28;46426;-63
2023/03/31 02:21:50;;;;;;;;;1.50;1.50;;;;;15.26;64.59;99603.94;2097735;28;46591;-62
2023/03/31 02:22:55;;;;;;;;;1.00;1.00;;;;;15.27;64.65;99604.81;2105577;28;46653;-62
2023/03/31 02:23:56;;;;;;;;;2.50;1.75;;;;;15.26;64.59;99595.94;2105668;28;46855;-61
2023/03/31 02:25:00;;;;;;;;;4.75;3.75;;;;;15.27;64.71;99610.16;2105791;28;46262;-61
2023/03/31 02:26:08;;;;;;;;;1.50;1.25;;;;;15.26;64.44;99609.28;2105802;28;46438;-62
2023/03/31 02:27:20;;;;;;;;;1.00;1.00;;;;;15.25;64.66;99601.38;2102438;28;46296;-62
2023/03/31 02:28:26;;;;;;;;;1.75;1.00;;;;;15.26;64.71;99605.75;2097356;28;46821;-62
2023/03/31 02:29:27;;;;;;;;;4.00;3.00;;;;;15.24;65.03;99591.59;2097431;28;46530;-61
2023/03/31 02:30:38;;;;;;;;;1.00;1.00;;;;;15.24;64.58;99596.94;2100754;28;46468;-61
2023/03/31 02:31:47;;;;;;;;;1.00;1.00;;;;;15.23;64.65;99600.56;2105723;28;46641;-62
2023/03/31 02:32:47;;;;;;;;;2.00;2.00;;;;;15.23;64.67;99590.72;2105482;27;47041;-62
2023/03/31 02:33:48;;;;;;;;;0.00;0.00;;;;;15.25;64.71;99599.56;2104255;28;46409;-63
2023/03/31 02:34:48;;;;;;;;;1.33;1.33;;;;;15.26;64.65;99595.06;2105510;28;46188;-62
2023/03/31 02:35:50;;;;;;;;;2.00;1.33;;;;;15.26;64.71;99589.72;2105485;28;46211;-64
2023/03/31 02:36:51;;;;;;;;;3.00;2.00;;;;;15.26;64.83;99589.72;2105526;28;46475;-63
2023/03/31 02:37:52;;;;;;;;;2.00;0.67;;;;;15.27;64.22;99586.09;2104911;27;46579;-63
2023/03/31 02:38:58;;;;;;;;;4.25;2.00;;;;;15.27;64.80;99594.13;2099180;28;46420;-63
2023/03/31 02:40:04;;;;;;;;;2.25;2.00;;;;;15.28;64.73;99580.66;2102707;28;46277;-62
2023/03/31 02:41:06;;;;;;;;;0.25;0.00;;;;;15.28;64.16;99577.13;2105740;28;47440;-63
2023/03/31 02:42:07;;;;;;;;;2.75;2.75;;;;;15.29;64.64;99582.38;2105381;28;46731;-62
2023/03/31 02:43:08;;;;;;;;;2.00;2.00;;;;;15.29;64.29;99577.03;2105570;28;46627;-62
2023/03/31 02:44:10;;;;;;;;;2.00;2.00;;;;;15.30;64.16;99559.19;2088148;28;46391;-62
2023/03/31 02:45:49;;;;;;;;;1.00;1.00;;;;;15.32;64.23;99555.44;2088378;28;46539;-62
2023/03/31 02:46:49;;;;;;;;;1.25;1.25;;;;;15.35;64.50;99556.22;2105695;28;46371;-63
2023/03/31 02:47:50;;;;;;;;;4.67;1.33;;;;;15.37;64.02;99562.31;2105407;28;46514;-61
2023/03/31 02:48:55;;;;;;;;;3.00;2.00;;;;;15.38;64.68;99550.72;2096445;28;46252;-62
2023/03/31 02:49:59;;;;;;;;;2.25;2.25;;;;;15.39;63.96;99547.09;2097386;28;46898;-61
2023/03/31 02:51:07;;;;;;;;;1.75;1.75;;;;;15.41;64.31;99547.84;2105675;28;46507;-61
2023/03/31 02:52:33;;;;;;;;;4.00;3.00;;;;;15.40;64.18;99548.81;2105404;28;46301;-63
2023/03/31 02:53:46;;;;;;;;;1.75;1.75;;;;;15.41;64.21;99513.94;2104844;27;46830;-63
2023/03/31 02:55:09;;;;;;;;;1.50;1.50;;;;;15.42;64.04;99534.38;2100978;28;46050;-64
2023/03/31 02:56:35;;;;;;;;;4.00;3.25;;;;;15.41;64.00;99518.44;2098472;28;46539;-63
2023/03/31 02:58:04;;;;;;;;;2.75;2.75;;;;;15.40;64.10;99514.91;2103439;28;46660;-63
2023/03/31 02:59:37;;;;;;;;;1.75;1.00;;;;;15.40;64.25;99525.59;2104800;28;46226;-62
2023/03/31 03:01:11;;;;;;;;;1.50;1.50;;;;;15.40;64.50;99522.06;2101049;28;46614;-62
2023/03/31 03:02:26;;;;;;;;;3.50;3.50;;;;;15.40;63.88;99519.41;2104493;28;46340;-61
2023/03/31 03:03:33;;;;;;;;;2.25;1.75;;;;;15.39;64.21;99512.34;2105271;28;46728;-62
2023/03/31 03:04:57;;;;;;;;;3.00;2.00;;;;;15.38;64.41;99522.16;2105367;28;46925;-63
2023/03/31 03:06:17;;;;;;;;;3.75;3.00;;;;;15.37;63.89;99514.22;2097334;28;46796;-62
2023/03/31 03:07:36;;;;;;;;;3.00;3.00;;;;;15.37;63.76;99532.91;2096934;28;46079;-63
2023/03/31 03:08:54;;;;;;;;;2.50;1.50;;;;;15.35;63.62;99516.97;2104372;28;46679;-62
2023/03/31 03:10:07;;;;;;;;;3.50;3.00;;;;;15.35;64.12;99514.31;2096381;28;46194;-61
2023/03/31 03:11:17;;;;;;;;;2.50;2.50;;;;;15.33;64.14;99508.19;2098191;28;46588;-62
2023/03/31 03:12:26;;;;;;;;;3.25;1.75;;;;;15.32;63.99;99507.34;2105648;28;46859;-62
2023/03/31 03:13:39;;;;;;;;;4.25;3.75;;;;;15.31;64.11;99510.09;2099930;28;46745;-61
2023/03/31 03:14:52;;;;;;;;;1.75;1.75;;;;;15.30;64.49;99500.38;2100085;28;46352;-63
2023/03/31 03:16:02;;;;;;;;;2.50;2.50;;;;;15.29;64.11;99494.16;2096701;28;46436;-62
2023/03/31 03:17:31;;;;;;;;;2.00;2.00;;;;;15.29;63.88;99490.63;2097624;28;46761;-62
2023/03/31 03:18:31;;;;;;;;;3.75;2.50;;;;;15.28;64.22;99502.28;2105488;28;46093;-61
2023/03/31 03:19:32;;;;;;;;;2.67;2.67;;;;;15.25;64.31;99499.81;2079161;28;46462;-62
2023/03/31 03:20:32;;;;;;;;;2.33;2.33;;;;;15.24;63.79;99493.56;2079356;28;46024;-62
2023/03/31 03:21:33;;;;;;;;;2.00;2.00;;;;;15.23;63.94;99499.88;2096590;28;46510;-63
2023/03/31 03:22:38;;;;;;;;;3.00;3.00;;;;;15.22;64.16;99505.31;2096627;28;45786;-62
2023/03/31 03:23:38;;;;;;;;;4.00;3.00;;;;;15.21;63.75;99512.47;2105041;28;46775;-60
2023/03/31 03:24:39;;;;;;;;;3.33;2.33;;;;;15.21;64.11;99525.81;2105334;28;46315;-63
2023/03/31 03:25:39;;;;;;;;;1.33;1.33;;;;;15.20;64.18;99508.06;2105519;28;45935;-62
2023/03/31 03:26:39;;;;;;;;;5.00;3.00;;;;;15.21;64.38;99506.25;2105087;28;46843;-62
2023/03/31 03:27:39;;;;;;;;;6.33;3.33;;;;;15.22;63.93;99502.63;2100603;28;46866;-62
2023/03/31 03:28:40;;;;;;;;;4.00;4.00;;;;;15.21;63.67;99495.56;2096939;28;47172;-62
2023/03/31 03:29:40;;;;;;;;;6.33;3.00;;;;;15.20;63.69;99501.88;2102402;28;46940;-63
2023/03/31 03:30:40;;;;;;;;;3.00;3.00;;;;;15.20;64.00;99491.19;2104785;28;46721;-61
2023/03/31 03:31:41;;;;;;;;;2.00;2.00;;;;;15.19;64.41;99501.00;2105416;28;46797;-62
2023/03/31 03:32:42;;;;;;;;;2.00;1.00;;;;;15.20;63.95;99494.72;2083287;28;46445;-62
2023/03/31 03:33:42;;;;;;;;;4.67;4.67;;;;;15.21;64.26;99495.56;2079032;28;46466;-61
2023/03/31 03:34:43;;;;;;;;;3.00;3.00;;;;;15.21;64.60;99492.91;2104174;28;46768;-61
2023/03/31 03:35:43;;;;;;;;;3.00;3.00;;;;;15.21;64.03;99488.41;2105050;28;46200;-61
2023/03/31 03:36:43;;;;;;;;;2.00;1.00;;;;;15.21;64.09;99492.91;2105343;28;46235;-62
2023/03/31 03:37:44;;;;;;;;;3.33;3.33;;;;;15.21;63.96;99488.41;2099459;28;46216;-61
2023/03/31 03:38:44;;;;;;;;;3.67;3.67;;;;;15.20;63.80;99486.69;2096977;28;46724;-62
2023/03/31 03:39:45;;;;;;;;;3.00;1.00;;;;;15.20;63.75;99483.16;2096824;28;46225;-60
2023/03/31 03:40:45;;;;;;;;;3.33;3.33;;;;;15.20;63.67;99481.34;2096815;28;46361;-61
2023/03/31 03:41:46;;;;;;;;;3.67;3.33;;;;;15.21;63.69;99482.22;2096570;28;46267;-61
2023/03/31 03:42:46;;;;;;;;;2.00;2.00;;;;;15.20;64.04;99483.16;2096576;28;48248;-62
2023/03/31 03:43:46;;;;;;;;;6.00;3.00;;;;;15.20;63.72;99483.16;2090449;28;46277;-63
2023/03/31 03:44:47;;;;;;;;;6.00;4.00;;;;;15.19;63.57;99482.31;2096028;28;46958;-62
2023/03/31 03:45:48;;;;;;;;;4.67;4.00;;;;;15.18;64.22;99483.25;2096595;28;46512;-61
2023/03/31 03:46:49;;;;;;;;;2.00;1.50;;;;;15.18;64.26;99488.59;2096958;27;46776;-61
2023/03/31 03:47:49;;;;;;;;;2.67;2.67;;;;;15.15;64.12;99475.44;2105009;27;46164;-62
2023/03/31 03:48:49;;;;;;;;;1.00;0.67;;;;;15.15;63.66;99471.91;2105773;27;45508;-62
2023/03/31 03:49:50;;;;;;;;;4.00;2.67;;;;;15.15;64.12;99472.75;2104543;28;46912;-62
2023/03/31 03:50:52;;;;;;;;;1.00;1.00;;;;;15.16;64.02;99468.28;2105019;27;46453;-62
2023/03/31 03:51:52;;;;;;;;;2.25;2.25;;;;;15.17;63.97;99473.53;2087213;28;46519;-63
2023/03/31 03:52:52;;;;;;;;;4.33;2.00;;;;;15.19;64.08;99470.75;2079566;28;46310;-63
2023/03/31 03:53:53;;;;;;;;;3.00;3.00;;;;;15.19;64.15;99471.63;2087776;28;46403;-62
2023/03/31 03:54:53;;;;;;;;;3.67;3.67;;;;;15.21;64.29;99466.16;2093529;28;46841;-62
2023/03/31 03:55:54;;;;;;;;;3.67;2.67;;;;;15.22;63.99;99467.88;2096062;28;46713;-62
2023/03/31 03:56:54;;;;;;;;;3.33;1.67;;;;;15.22;64.09;99457.19;2097524;28;46589;-60
2023/03/31 03:57:54;;;;;;;;;2.67;2.67;;;;;15.21;64.22;99459.00;2104852;28;46359;-62
2023/03/31 03:58:55;;;;;;;;;0.00;0.00;;;;;15.21;63.69;99472.38;2087822;28;46272;-61
2023/03/31 03:59:55;;;;;;;;;3.00;3.00;;;;;15.21;64.26;99471.53;2088276;28;46527;-62
2023/03/31 04:00:58;;;;;;;;;3.00;3.00;;;;;15.21;64.23;99458.16;2096204;28;47014;-62
2023/03/31 04:01:58;;;;;;;;;3.00;3.00;;;;;15.21;64.19;99445.66;2096891;28;46528;-61
2023/03/31 04:02:59;;;;;;;;;5.67;4.00;;;;;15.20;64.05;99454.63;2106203;27;46198;-62
2023/03/31 04:03:59;;;;;;;;;4.00;4.00;;;;;15.22;64.09;99459.88;2096134;28;46263;-61
2023/03/31 04:04:59;;;;;;;;;7.67;4.67;;;;;15.22;63.93;99451.84;2096860;28;46712;-62
2023/03/31 04:05:59;;;;;;;;;5.00;3.00;;;;;15.22;64.07;99450.03;2096134;28;46641;-60
2023/03/31 04:07:00;;;;;;;;;4.00;3.00;;;;;15.23;64.03;99448.22;2096993;28;46389;-62
2023/03/31 04:08:00;;;;;;;;;6.67;4.00;;;;;15.23;63.91;99454.44;2105688;27;46827;-62
2023/03/31 04:09:01;;;;;;;;;5.00;3.67;;;;;15.24;63.91;99452.63;2104770;28;46349;-62
2023/03/31 04:10:01;;;;;;;;;3.00;2.33;;;;;15.22;63.87;99452.72;2105435;27;46347;-61
2023/03/31 04:11:01;;;;;;;;;4.00;3.00;;;;;15.23;63.78;99443.75;2105377;27;46388;-62
2023/03/31 04:12:02;;;;;;;;;1.67;1.67;;;;;15.22;64.12;99447.38;2105370;27;45749;-62
2023/03/31 04:13:02;;;;;;;;;2.67;2.00;;;;;15.23;63.73;99442.88;2105522;27;46388;-61
2023/03/31 04:14:03;;;;;;;;;2.00;2.00;;;;;15.22;63.87;99444.69;2094915;28;46795;-62
2023/03/31 04:15:04;;;;;;;;;3.33;3.33;;;;;15.23;63.61;99421.50;2095330;28;46537;-62
2023/03/31 04:16:05;;;;;;;;;1.75;1.75;;;;;15.22;63.80;99428.66;2096995;28;46609;-62
2023/03/31 04:17:05;;;;;;;;;2.00;2.00;;;;;15.21;64.06;99429.63;2095627;28;46374;-62
2023/03/31 04:18:05;;;;;;;;;3.33;3.00;;;;;15.22;63.68;99433.16;2104778;27;46509;-62
2023/03/31 04:19:07;;;;;;;;;2.33;2.33;;;;;15.21;63.59;99445.66;2096071;28;46551;-62
2023/03/31 04:20:08;;;;;;;;;4.00;3.00;;;;;15.21;63.75;99431.44;2095889;28;45919;-62
2023/03/31 04:21:14;;;;;;;;;4.75;2.75;;;;;15.20;63.32;99438.59;2103231;27;46555;-62
2023/03/31 04:22:19;;;;;;;;;3.00;3.00;;;;;15.20;63.64;99437.72;2113589;27;47005;-62
2023/03/31 04:23:25;;;;;;;;;0.75;0.75;;;;;15.19;63.94;99426.19;2112447;27;46510;-61
2023/03/31 04:24:29;;;;;;;;;3.50;3.50;;;;;15.22;63.39;99438.50;2102525;28;46850;-62
2023/03/31 04:25:30;;;;;;;;;3.00;2.00;;;;;15.22;63.39;99434.00;2096619;28;46768;-61
2023/03/31 04:26:41;;;;;;;;;2.67;2.67;;;;;15.23;63.97;99427.72;2104883;27;46099;-62
2023/03/31 04:27:45;;;;;;;;;4.00;4.00;;;;;15.24;63.65;99436.59;2105392;27;46790;-62
2023/03/31 04:28:49;;;;;;;;;3.00;3.00;;;;;15.23;63.92;99430.38;2097032;28;45682;-62
2023/03/31 04:29:53;;;;;;;;;4.25;3.00;;;;;15.23;63.74;99434.88;2112618;27;46804;-61
2023/03/31 04:30:54;;;;;;;;;4.75;3.75;;;;;15.22;63.85;99419.78;2103824;28;46759;-62
2023/03/31 04:31:58;;;;;;;;;5.67;5.67;;;;;15.21;63.77;99418.06;2101512;28;46312;-62
2023/03/31 04:33:01;;;;;;;;;6.50;5.50;;;;;15.20;63.58;99422.56;2112215;27;46693;-62
2023/03/31 04:34:05;;;;;;;;;4.25;3.25;;;;;15.18;63.89;99407.56;2111984;27;46418;-62
2023/03/31 04:35:06;;;;;;;;;6.00;5.25;;;;;15.19;63.73;99425.31;2113434;27;46467;-62
2023/03/31 04:36:16;;;;;;;;;7.67;5.00;;;;;15.18;63.17;99415.59;2112355;27;46248;-62
2023/03/31 04:37:16;;;;;;;;;4.50;4.50;;;;;15.18;63.41;99419.13;2112693;27;46255;-63
2023/03/31 04:38:22;;;;;;;;;2.00;2.00;;;;;15.17;63.29;99419.22;2104419;28;46797;-62
2023/03/31 04:39:25;;;;;;;;;6.25;4.75;;;;;15.17;63.49;99428.09;2104207;27;46463;-62
2023/03/31 04:40:26;;;;;;;;;7.00;5.50;;;;;15.19;63.38;99422.66;2112803;27;47201;-62
2023/03/31 04:41:26;;;;;;;;;8.00;5.00;;;;;15.19;63.55;99431.53;2112991;27;46622;-62
2023/03/31 04:42:26;;;;;;;;;6.33;6.33;;;;;15.20;63.30;99419.88;2113062;27;46048;-62
2023/03/31 04:43:27;;;;;;;;;6.00;5.00;;;;;15.20;63.25;99408.34;2112337;27;46589;-63
2023/03/31 04:44:28;;;;;;;;;5.00;5.00;;;;;15.18;63.09;99416.44;2105101;27;46347;-62
2023/03/31 04:45:28;;;;;;;;;8.33;6.00;;;;;15.18;63.48;99405.75;2105918;27;46695;-62
2023/03/31 04:46:28;;;;;;;;;5.00;5.00;;;;;15.18;63.39;99413.78;2104903;28;46763;-63
2023/03/31 04:47:29;;;;;;;;;5.00;4.33;;;;;15.16;63.60;99396.13;2106990;27;46913;-61
2023/03/31 04:48:29;;;;;;;;;6.33;4.00;;;;;15.15;63.02;99416.66;2106792;27;46648;-64
2023/03/31 04:49:32;;;;;;;;;5.00;4.67;;;;;15.17;63.32;99398.69;2095578;28;46058;-62
2023/03/31 04:50:32;;;;;;;;;3.00;3.00;;;;;15.17;62.98;99409.38;2079517;28;47845;-61
2023/03/31 04:51:33;;;;;;;;;3.00;2.67;;;;;15.18;63.00;99402.22;2079151;28;45329;-63
2023/03/31 04:52:33;;;;;;;;;6.00;4.33;;;;;15.19;62.75;99403.94;2104881;27;46316;-62
2023/03/31 04:53:34;;;;;;;;;6.67;4.67;;;;;15.19;62.61;99414.63;2104729;27;46589;-61
2023/03/31 04:54:34;;;;;;;;;4.33;3.00;;;;;15.19;62.88;99422.66;2104751;28;46665;-62
2023/03/31 04:55:35;;;;;;;;;5.67;4.00;;;;;15.18;62.42;99421.78;2105493;27;46864;-61
2023/03/31 04:56:35;;;;;;;;;5.67;5.67;;;;;15.17;62.50;99424.56;2105686;27;46279;-62
2023/03/31 04:57:36;;;;;;;;;6.00;5.00;;;;;15.15;62.26;99424.66;2094312;28;46768;-60
2023/03/31 04:58:37;;;;;;;;;5.67;5.00;;;;;15.15;62.34;99407.78;2095487;28;47000;-62
2023/03/31 04:59:37;;;;;;;;;4.67;3.33;;;;;15.14;62.42;99422.94;2104091;28;46551;-62
2023/03/31 05:00:37;;;;;;;;;6.67;4.00;;;;;15.14;62.63;99438.97;2101775;28;46082;-61
2023/03/31 05:01:38;;;;;;;;;5.33;3.00;;;;;15.13;62.58;99425.72;2102979;27;46357;-62
2023/03/31 05:02:38;;;;;;;;;3.67;3.67;;;;;15.13;62.00;99428.38;2100525;27;46806;-61
2023/03/31 05:03:38;;;;;;;;;6.33;5.00;;;;;15.10;61.93;99417.88;2105211;27;46505;-62
2023/03/31 05:04:39;;;;;;;;;4.00;3.00;;;;;15.10;62.15;99420.53;2095501;28;46647;-62
2023/03/31 05:05:39;;;;;;;;;6.00;5.33;;;;;15.09;62.11;99405.47;2095044;28;46220;-61
2023/03/31 05:06:40;;;;;;;;;2.33;2.00;;;;;15.09;61.90;99418.81;2086499;28;47700;-61
2023/03/31 05:07:40;;;;;;;;;6.67;4.67;;;;;15.10;62.12;99417.88;2086614;28;46204;-62
2023/03/31 05:08:41;;;;;;;;;3.00;3.00;;;;;15.09;62.10;99413.47;2078717;28;46159;-63